createdAt,value
2018-02-24T00:00:09.037Z,8.60
2018-02-24T00:02:38.442Z,9.77
2018-02-24T00:05:07.114Z,10.48
2018-02-24T00:07:36.548Z,9.20
2018-02-24T00:10:05.213Z,6.60
2018-02-24T00:12:33.873Z,11.25
2018-02-24T00:15:02.531Z,7.20
2018-02-24T00:17:31.988Z,8.75
2018-02-24T00:20:00.651Z,7.57
2018-02-24T00:22:28.644Z,8.60
2018-02-24T00:24:57.308Z,9.43
2018-02-24T00:27:26.762Z,9.80
2018-02-24T00:29:55.432Z,5.72
2018-02-24T00:32:24.074Z,9.23
2018-02-24T00:34:53.504Z,10.70
2018-02-24T00:37:22.172Z,11.43
2018-02-24T00:39:51.596Z,11.50
2018-02-24T00:42:20.245Z,8.90
2018-02-24T00:44:48.895Z,10.10
2018-02-24T00:47:17.361Z,9.80
2018-02-24T00:49:46.645Z,12.55
2018-02-24T00:52:15.315Z,10.18
2018-02-24T00:54:44.739Z,10.80
2018-02-24T00:57:13.219Z,10.10
2018-02-24T00:59:41.942Z,11.10
2018-02-24T01:02:10.488Z,8.82
2018-02-24T01:04:38.957Z,11.27
2018-02-24T01:07:07.644Z,8.95
2018-02-24T01:09:36.300Z,11.45
2018-02-24T01:12:04.959Z,10.57
2018-02-24T01:14:33.597Z,11.15
2018-02-24T01:17:02.255Z,13.30
2018-02-24T01:19:30.916Z,8.07
2018-02-24T01:21:59.548Z,11.48
2018-02-24T01:24:28.972Z,12.82
2018-02-24T01:26:57.725Z,8.82
2018-02-24T01:29:27.174Z,14.70
2018-02-24T01:31:55.824Z,12.32
2018-02-24T01:34:24.484Z,10.57
2018-02-24T01:36:53.124Z,13.88
2018-02-24T01:39:21.815Z,13.07
2018-02-24T01:41:50.480Z,12.73
2018-02-24T01:44:19.138Z,14.65
2018-02-24T01:46:48.555Z,13.38
2018-02-24T01:49:17.296Z,12.02
2018-02-24T01:51:45.960Z,8.27
2018-02-24T01:54:14.617Z,13.65
2018-02-24T01:56:43.264Z,15.50
2018-02-24T01:59:11.909Z,13.30
2018-02-24T02:01:40.576Z,10.73
2018-02-24T02:04:09.233Z,11.65
2018-02-24T02:06:38.664Z,7.82
2018-02-24T02:09:07.304Z,11.80
2018-02-24T02:11:35.985Z,11.40
2018-02-24T02:14:04.627Z,13.82
2018-02-24T02:16:33.288Z,10.55
2018-02-24T02:19:01.928Z,9.88
2018-02-24T02:21:30.614Z,13.45
2018-02-24T02:23:59.263Z,13.20
2018-02-24T02:26:27.928Z,13.23
2018-02-24T02:28:56.582Z,14.80
2018-02-24T02:31:25.247Z,15.68
2018-02-24T02:33:53.574Z,14.43
2018-02-24T02:36:23.001Z,13.48
2018-02-24T02:38:51.656Z,13.30
2018-02-24T02:41:20.326Z,18.80
2018-02-24T02:43:49.769Z,15.43
2018-02-24T02:46:18.420Z,16.42
2018-02-24T02:48:47.853Z,11.20
2018-02-24T02:51:16.501Z,13.15
2018-02-24T02:53:45.941Z,9.10
2018-02-24T02:56:14.592Z,14.20
2018-02-24T02:58:44.222Z,8.05
2018-02-24T03:01:12.875Z,12.18
2018-02-24T03:03:41.544Z,13.73
2018-02-24T03:06:10.015Z,13.65
2018-02-24T03:08:38.671Z,13.77
2018-02-24T03:11:07.425Z,13.77
2018-02-24T03:13:35.765Z,13.73
2018-02-24T03:16:04.070Z,12.90
2018-02-24T03:18:32.728Z,10.93
2018-02-24T03:21:01.392Z,14.07
2018-02-24T03:23:30.079Z,12.27
2018-02-24T03:25:58.724Z,9.82
2018-02-24T03:28:27.388Z,12.65
2018-02-24T03:30:56.053Z,10.13
2018-02-24T03:33:24.701Z,9.32
2018-02-24T03:35:53.392Z,12.60
2018-02-24T03:38:22.030Z,12.43
2018-02-24T03:40:50.747Z,13.00
2018-02-24T03:43:19.413Z,13.13
2018-02-24T03:45:48.657Z,12.85
2018-02-24T03:48:17.306Z,11.05
2018-02-24T03:50:46.538Z,13.27
2018-02-24T03:53:15.003Z,12.20
2018-02-24T03:55:43.462Z,11.63
2018-02-24T03:58:12.874Z,11.95
2018-02-24T04:00:41.532Z,11.32
2018-02-24T04:03:10.955Z,13.07
2018-02-24T04:05:39.434Z,11.27
2018-02-24T04:08:08.087Z,10.73
2018-02-24T04:10:36.727Z,14.73
2018-02-24T04:13:05.390Z,11.32
2018-02-24T04:15:34.037Z,9.25
2018-02-24T04:18:02.706Z,10.10
2018-02-24T04:20:31.348Z,11.50
2018-02-24T04:22:59.675Z,12.57
2018-02-24T04:25:28.327Z,12.80
2018-02-24T04:27:56.996Z,9.65
2018-02-24T04:30:25.647Z,13.05
2018-02-24T04:32:54.309Z,11.10
2018-02-24T04:35:22.961Z,13.15
2018-02-24T04:37:51.641Z,11.38
2018-02-24T04:40:20.284Z,7.00
2018-02-24T04:42:49.716Z,10.05
2018-02-24T04:45:19.120Z,11.85
2018-02-24T04:47:47.792Z,10.80
2018-02-24T04:50:17.205Z,11.48
2018-02-24T04:52:45.863Z,10.80
2018-02-24T04:55:14.559Z,12.07
2018-02-24T04:57:43.963Z,8.98
2018-02-24T05:00:13.385Z,10.75
2018-02-24T05:02:42.035Z,11.63
2018-02-24T05:05:10.357Z,12.18
2018-02-24T05:07:39.015Z,14.00
2018-02-24T05:10:08.434Z,12.30
2018-02-24T05:12:37.081Z,11.05
2018-02-24T05:15:05.745Z,9.63
2018-02-24T05:17:34.409Z,11.60
2018-02-24T05:20:03.060Z,9.63
2018-02-24T05:22:31.761Z,10.45
2018-02-24T05:25:00.531Z,12.57
2018-02-24T05:27:29.192Z,11.25
2018-02-24T05:29:57.844Z,8.02
2018-02-24T05:32:26.485Z,12.57
2018-02-24T05:34:55.904Z,12.63
2018-02-24T05:37:24.556Z,10.05
2018-02-24T05:39:53.246Z,11.85
2018-02-24T05:42:22.655Z,10.02
2018-02-24T05:44:52.071Z,10.52
2018-02-24T05:47:20.727Z,7.30
2018-02-24T05:49:49.528Z,10.75
2018-02-24T05:52:18.950Z,11.63
2018-02-24T05:54:47.596Z,9.95
2018-02-24T05:57:16.259Z,12.90
2018-02-24T05:59:44.904Z,9.07
2018-02-24T06:02:13.465Z,9.80
2018-02-24T06:04:42.942Z,10.80
2018-02-24T06:07:11.621Z,13.18
2018-02-24T06:09:40.273Z,6.28
2018-02-24T06:12:08.919Z,6.53
2018-02-24T06:14:37.578Z,6.85
2018-02-24T06:17:06.233Z,8.88
2018-02-24T06:19:34.905Z,10.98
2018-02-24T06:22:03.584Z,11.73
2018-02-24T06:24:32.231Z,9.15
2018-02-24T06:27:00.867Z,5.32
2018-02-24T06:29:29.530Z,5.85
2018-02-24T06:31:58.762Z,7.80
2018-02-24T06:34:27.239Z,10.23
2018-02-24T06:36:55.884Z,8.13
2018-02-24T06:39:25.313Z,9.38
2018-02-24T06:41:54.085Z,11.15
2018-02-24T06:44:22.784Z,9.18
2018-02-24T06:46:51.464Z,8.40
2018-02-24T06:49:20.124Z,11.20
2018-02-24T06:51:48.755Z,11.98
2018-02-24T06:54:17.440Z,8.25
2018-02-24T06:56:45.779Z,10.60
2018-02-24T06:59:15.204Z,8.70
2018-02-24T07:01:43.863Z,8.10
2018-02-24T07:04:13.279Z,10.70
2018-02-24T07:06:41.932Z,5.10
2018-02-24T07:09:10.576Z,8.07
2018-02-24T07:11:39.263Z,11.12
2018-02-24T07:14:07.941Z,8.40
2018-02-24T07:16:36.671Z,8.45
2018-02-24T07:19:05.332Z,11.68
2018-02-24T07:21:33.814Z,10.05
2018-02-24T07:24:03.281Z,8.40
2018-02-24T07:26:31.968Z,9.80
2018-02-24T07:29:00.613Z,10.85
2018-02-24T07:31:29.275Z,9.48
2018-02-24T07:33:57.940Z,6.65
2018-02-24T07:36:26.611Z,11.07
2018-02-24T07:38:55.260Z,8.93
2018-02-24T07:41:24.804Z,15.00
2018-02-24T07:43:53.480Z,9.85
2018-02-24T07:46:22.139Z,10.18
2018-02-24T07:48:50.882Z,8.88
2018-02-24T07:51:19.563Z,9.85
2018-02-24T07:53:48.260Z,13.20
2018-02-24T07:56:16.933Z,12.40
2018-02-24T07:58:45.597Z,7.57
2018-02-24T08:01:14.405Z,10.60
2018-02-24T08:03:46.631Z,7.12
2018-02-24T08:06:15.482Z,11.40
2018-02-24T08:11:19.932Z,11.27
2018-02-24T08:13:48.622Z,8.23
2018-02-24T08:16:17.279Z,9.65
2018-02-24T08:18:46.127Z,8.80
2018-02-24T08:21:14.854Z,8.43
2018-02-24T08:23:43.182Z,9.88
2018-02-24T08:26:11.943Z,10.13
2018-02-24T08:28:40.624Z,8.70
2018-02-24T08:31:10.046Z,10.13
2018-02-24T08:33:38.721Z,10.95
2018-02-24T08:36:08.178Z,10.38
2018-02-24T08:38:36.820Z,10.65
2018-02-24T08:41:06.303Z,10.38
2018-02-24T08:43:35.100Z,11.70
2018-02-24T08:46:03.796Z,12.45
2018-02-24T08:48:33.243Z,10.07
2018-02-24T08:51:01.907Z,7.95
2018-02-24T08:53:30.547Z,10.25
2018-02-24T08:55:59.238Z,11.63
2018-02-24T08:58:27.915Z,7.22
2018-02-24T09:00:56.400Z,7.65
2018-02-24T09:03:25.050Z,11.52
2018-02-24T09:05:53.598Z,12.45
2018-02-24T09:08:22.282Z,7.43
2018-02-24T09:10:50.980Z,10.57
2018-02-24T09:13:20.398Z,10.80
2018-02-24T09:15:49.580Z,9.70
2018-02-24T09:18:18.247Z,10.50
2018-02-24T09:20:47.684Z,10.23
2018-02-24T09:23:16.069Z,7.23
2018-02-24T09:25:44.444Z,7.90
2018-02-24T09:28:13.104Z,9.30
2018-02-24T09:30:41.476Z,9.63
2018-02-24T09:33:09.867Z,10.47
2018-02-24T09:35:38.528Z,9.43
2018-02-24T09:38:07.947Z,7.45
2018-02-24T09:40:36.592Z,8.82
2018-02-24T09:43:05.237Z,7.25
2018-02-24T09:45:33.884Z,9.45
2018-02-24T09:48:03.336Z,9.95
2018-02-24T09:50:31.735Z,8.60
2018-02-24T09:53:00.881Z,9.13
2018-02-24T09:55:29.267Z,7.13
2018-02-24T09:57:57.700Z,8.47
2018-02-24T10:00:26.095Z,11.10
2018-02-24T10:02:54.478Z,10.47
2018-02-24T10:05:22.868Z,10.20
2018-02-24T10:07:51.246Z,7.43
2018-02-24T10:10:19.627Z,11.37
2018-02-24T10:12:49.046Z,9.57
2018-02-24T10:15:17.477Z,5.67
2018-02-24T10:17:46.612Z,8.37
2018-02-24T10:20:15.017Z,11.13
2018-02-24T10:22:43.392Z,10.37
2018-02-24T10:25:11.793Z,8.60
2018-02-24T10:27:40.952Z,8.40
2018-02-24T10:30:10.238Z,7.27
2018-02-24T10:32:38.712Z,8.60
2018-02-24T10:35:07.135Z,10.27
2018-02-24T10:37:35.508Z,9.30
2018-02-24T10:40:03.883Z,10.93
2018-02-24T10:42:32.351Z,9.93
2018-02-24T10:45:00.769Z,11.40
2018-02-24T10:47:29.195Z,11.00
2018-02-24T10:49:57.590Z,7.37
2018-02-24T10:52:26.748Z,7.70
2018-02-24T10:54:55.143Z,9.10
2018-02-24T10:57:24.719Z,9.60
2018-02-24T10:59:53.869Z,8.47
2018-02-24T11:02:22.287Z,9.70
2018-02-24T11:04:51.437Z,10.20
2018-02-24T11:07:19.835Z,9.87
2018-02-24T11:09:48.232Z,10.40
2018-02-24T11:12:17.377Z,9.77
2018-02-24T11:14:45.832Z,6.43
2018-02-24T11:17:14.238Z,8.10
2018-02-24T11:19:43.547Z,12.67
2018-02-24T11:22:11.914Z,8.40
2018-02-24T11:24:40.307Z,10.90
2018-02-24T11:27:08.692Z,9.00
2018-02-24T11:29:37.091Z,7.27
2018-02-24T11:32:05.466Z,9.80
2018-02-24T11:34:33.840Z,9.77
2018-02-24T11:37:02.217Z,7.50
2018-02-24T11:39:36.242Z,7.57
2018-02-24T11:42:04.759Z,8.27
2018-02-24T11:44:33.189Z,8.87
2018-02-24T11:47:01.374Z,5.20
2018-02-24T11:49:29.751Z,7.87
2018-02-24T11:51:58.929Z,10.13
2018-02-24T11:54:27.131Z,7.60
2018-02-24T11:56:56.283Z,9.70
2018-02-24T11:59:24.656Z,7.57
2018-02-24T12:01:53.873Z,9.33
2018-02-24T12:04:22.295Z,8.90
2018-02-24T12:06:50.680Z,9.80
2018-02-24T12:09:18.855Z,8.70
2018-02-24T12:11:47.051Z,8.37
2018-02-24T12:14:15.425Z,8.67
2018-02-24T12:16:43.823Z,11.20
2018-02-24T12:19:12.195Z,7.07
2018-02-24T12:21:40.588Z,7.97
2018-02-24T12:24:08.991Z,6.90
2018-02-24T12:26:37.357Z,5.87
2018-02-24T12:29:05.737Z,4.33
2018-02-24T12:31:34.142Z,8.30
2018-02-24T12:34:02.687Z,8.00
2018-02-24T12:36:31.082Z,7.93
2018-02-24T12:38:59.455Z,5.23
2018-02-24T12:41:28.711Z,6.10
2018-02-24T12:43:57.106Z,5.73
2018-02-24T12:46:25.480Z,5.90
2018-02-24T12:48:53.851Z,5.97
2018-02-24T12:51:22.241Z,6.17
2018-02-24T12:53:50.660Z,4.83
2018-02-24T12:56:19.819Z,6.70
2018-02-24T12:58:48.204Z,6.07
2018-02-24T13:01:16.597Z,7.00
2018-02-24T13:03:44.965Z,6.90
2018-02-24T13:06:13.332Z,6.53
2018-02-24T13:08:41.717Z,5.50
2018-02-24T13:11:10.904Z,4.40
2018-02-24T13:13:39.283Z,10.50
2018-02-24T13:16:07.662Z,7.27
2018-02-24T13:18:35.711Z,6.47
2018-02-24T13:21:04.146Z,5.77
2018-02-24T13:23:33.350Z,9.00
2018-02-24T13:26:02.545Z,5.50
2018-02-24T13:28:31.774Z,6.73
2018-02-24T13:30:59.980Z,6.20
2018-02-24T13:33:28.177Z,7.13
2018-02-24T13:35:56.364Z,7.33
2018-02-24T13:38:25.336Z,6.47
2018-02-24T13:40:53.522Z,5.40
2018-02-24T13:43:21.900Z,7.57
2018-02-24T13:45:50.332Z,6.60
2018-02-24T13:48:18.726Z,6.53
2018-02-24T13:50:47.288Z,8.43
2018-02-24T13:53:15.856Z,5.57
2018-02-24T13:55:44.264Z,8.40
2018-02-24T13:58:12.647Z,5.83
2018-02-24T14:00:41.198Z,7.03
2018-02-24T14:03:09.684Z,6.23
2018-02-24T14:05:39.261Z,4.83
2018-02-24T14:08:08.392Z,6.30
2018-02-24T14:10:36.773Z,4.53
2018-02-24T14:13:05.968Z,7.97
2018-02-24T14:15:34.501Z,8.60
2018-02-24T14:18:02.865Z,6.70
2018-02-24T14:20:31.261Z,7.10
2018-02-24T14:22:59.630Z,6.87
2018-02-24T14:25:28.014Z,7.97
2018-02-24T14:27:56.374Z,6.10
2018-02-24T14:30:24.958Z,6.97
2018-02-24T14:32:54.138Z,7.23
2018-02-24T14:35:22.640Z,7.63
2018-02-24T14:37:51.014Z,6.30
2018-02-24T14:40:19.416Z,7.93
2018-02-24T14:42:48.557Z,6.77
2018-02-24T14:45:16.941Z,5.97
2018-02-24T14:47:45.315Z,5.30
2018-02-24T14:50:13.689Z,4.77
2018-02-24T14:52:42.084Z,5.47
2018-02-24T14:55:10.471Z,6.50
2018-02-24T14:57:38.866Z,5.93
2018-02-24T15:00:06.921Z,5.43
2018-02-24T15:02:35.299Z,5.40
2018-02-24T15:05:04.468Z,5.30
2018-02-24T15:07:32.756Z,5.17
2018-02-24T15:10:01.123Z,5.77
2018-02-24T15:12:29.508Z,3.60
2018-02-24T15:14:57.688Z,5.30
2018-02-24T15:17:25.889Z,4.93
2018-02-24T15:19:54.058Z,5.60
2018-02-24T15:22:22.455Z,4.47
2018-02-24T15:24:50.674Z,6.30
2018-02-24T15:27:18.882Z,5.73
2018-02-24T15:29:47.261Z,5.30
2018-02-24T15:32:15.663Z,5.63
2018-02-24T15:34:44.876Z,6.17
2018-02-24T15:37:13.820Z,5.53
2018-02-24T15:39:42.204Z,4.50
2018-02-24T15:42:10.593Z,5.80
2018-02-24T15:44:38.987Z,4.60
2018-02-24T15:47:08.122Z,5.13
2018-02-24T15:49:36.609Z,5.50
2018-02-24T15:52:04.981Z,3.47
2018-02-24T15:54:33.484Z,3.93
2018-02-24T15:57:01.904Z,4.73
2018-02-24T15:59:31.056Z,4.80
2018-02-24T16:01:59.428Z,3.90
2018-02-24T16:04:27.811Z,3.80
2018-02-24T16:06:56.191Z,4.20
2018-02-24T16:09:24.583Z,3.23
2018-02-24T16:11:52.982Z,3.60
2018-02-24T16:14:21.636Z,2.53
2018-02-24T16:16:50.769Z,4.23
2018-02-24T16:19:19.531Z,2.77
2018-02-24T16:21:48.073Z,4.10
2018-02-24T16:24:16.441Z,4.00
2018-02-24T16:26:44.822Z,4.13
2018-02-24T16:29:13.446Z,3.47
2018-02-24T16:31:41.828Z,5.17
2018-02-24T16:34:10.208Z,3.80
2018-02-24T16:36:38.584Z,4.43
2018-02-24T16:39:06.953Z,5.77
2018-02-24T16:41:35.345Z,2.63
2018-02-24T16:44:03.997Z,3.90
2018-02-24T16:46:32.390Z,4.30
2018-02-24T16:49:01.056Z,3.20
2018-02-24T16:51:29.692Z,5.10
2018-02-24T16:53:58.317Z,3.30
2018-02-24T16:56:26.696Z,2.93
2018-02-24T16:58:55.336Z,4.20
2018-02-24T17:01:23.974Z,4.95
2018-02-24T17:03:53.364Z,4.75
2018-02-24T17:06:22.032Z,4.50
2018-02-24T17:08:50.671Z,4.37
2018-02-24T17:11:21.470Z,3.00
2018-02-24T17:13:50.183Z,6.00
2018-02-24T17:16:19.588Z,3.03
2018-02-24T17:18:49.007Z,5.25
2018-02-24T17:21:17.640Z,5.20
2018-02-24T17:23:46.301Z,4.30
2018-02-24T17:26:14.936Z,4.20
2018-02-24T17:28:43.577Z,4.37
2018-02-24T17:31:12.212Z,4.35
2018-02-24T17:33:41.631Z,5.70
2018-02-24T17:36:10.255Z,5.40
2018-02-24T17:38:38.718Z,5.43
2018-02-24T17:41:08.785Z,5.22
2018-02-24T17:43:38.207Z,4.90
2018-02-24T17:46:07.667Z,4.05
2018-02-24T17:48:37.202Z,5.40
2018-02-24T17:51:05.840Z,4.72
2018-02-24T17:53:34.512Z,6.20
2018-02-24T17:56:03.149Z,5.45
2018-02-24T17:58:31.795Z,6.80
2018-02-24T18:01:01.084Z,5.53
2018-02-24T18:03:29.537Z,3.92
2018-02-24T18:05:58.189Z,5.85
2018-02-24T18:08:26.836Z,7.30
2018-02-24T18:10:55.488Z,3.70
2018-02-24T18:13:24.900Z,4.70
2018-02-24T18:15:53.662Z,5.45
2018-02-24T18:18:23.064Z,5.10
2018-02-24T18:20:51.704Z,5.12
2018-02-24T18:23:20.340Z,6.37
2018-02-24T18:25:49.751Z,6.30
2018-02-24T18:28:18.406Z,6.12
2018-02-24T18:30:47.088Z,5.20
2018-02-24T18:33:15.914Z,5.87
2018-02-24T18:35:44.577Z,4.82
2018-02-24T18:38:13.985Z,5.05
2018-02-24T18:40:43.431Z,5.45
2018-02-24T18:43:12.076Z,5.45
2018-02-24T18:45:41.491Z,5.53
2018-02-24T18:48:10.120Z,5.50
2018-02-24T18:50:38.767Z,6.05
2018-02-24T18:53:07.417Z,5.40
2018-02-24T18:55:36.058Z,6.18
2018-02-24T18:58:04.722Z,5.80
2018-02-24T19:00:33.364Z,6.28
2018-02-24T19:03:02.022Z,5.15
2018-02-24T19:05:31.424Z,5.85
2018-02-24T19:08:00.102Z,5.75
2018-02-24T19:10:28.549Z,5.93
2018-02-24T19:12:57.205Z,7.47
2018-02-24T19:15:25.849Z,6.00
2018-02-24T19:17:54.514Z,7.95
2018-02-24T19:20:22.949Z,4.90
2018-02-24T19:22:51.603Z,5.40
2018-02-24T19:25:20.060Z,6.18
2018-02-24T19:27:48.708Z,6.10
2018-02-24T19:30:17.923Z,6.60
2018-02-24T19:32:46.622Z,5.37
2018-02-24T19:35:15.275Z,4.47
2018-02-24T19:37:44.677Z,8.10
2018-02-24T19:40:14.099Z,6.87
2018-02-24T19:42:42.748Z,6.18
2018-02-24T19:45:11.391Z,5.43
2018-02-24T19:47:40.793Z,5.37
2018-02-24T19:50:09.735Z,5.10
2018-02-24T19:52:38.431Z,6.93
2018-02-24T19:55:07.898Z,5.55
2018-02-24T19:57:36.632Z,3.87
2018-02-24T20:00:05.571Z,5.78
2018-02-24T20:02:35.186Z,7.35
2018-02-24T20:05:04.475Z,6.43
2018-02-24T20:07:33.146Z,3.08
2018-02-24T20:10:01.861Z,5.20
2018-02-24T20:12:30.495Z,3.85
2018-02-24T20:14:59.216Z,6.15
2018-02-24T20:17:28.082Z,4.95
2018-02-24T20:19:56.946Z,4.37
2018-02-24T20:22:26.649Z,3.28
2018-02-24T20:24:56.080Z,3.87
2018-02-24T20:27:24.720Z,4.25
2018-02-24T20:29:53.367Z,5.50
2018-02-24T20:32:22.036Z,4.50
2018-02-24T20:34:50.762Z,4.90
2018-02-24T20:37:19.616Z,5.07
2018-02-24T20:39:48.313Z,5.93
2018-02-24T20:42:16.980Z,5.03
2018-02-24T20:44:45.617Z,6.03
2018-02-24T20:47:14.266Z,3.95
2018-02-24T20:49:42.968Z,2.08
2018-02-24T20:52:11.646Z,5.20
2018-02-24T20:54:40.324Z,4.72
2018-02-24T20:57:09.068Z,4.37
2018-02-24T20:59:37.724Z,5.50
2018-02-24T21:02:06.368Z,5.45
2018-02-24T21:04:35.198Z,3.78
2018-02-24T21:07:04.667Z,3.00
2018-02-24T21:09:33.385Z,3.72
2018-02-24T21:12:02.042Z,2.90
2018-02-24T21:14:30.687Z,3.55
2018-02-24T21:17:00.173Z,5.35
2018-02-24T21:19:34.602Z,3.15
2018-02-24T21:22:04.049Z,4.40
2018-02-24T21:24:32.732Z,2.65
2018-02-24T21:27:01.363Z,2.33
2018-02-24T21:29:30.032Z,3.67
2018-02-24T21:31:58.762Z,1.45
2018-02-24T21:34:27.644Z,4.62
2018-02-24T21:36:57.128Z,2.80
2018-02-24T21:39:25.773Z,3.67
2018-02-24T21:41:54.408Z,1.60
2018-02-24T21:44:23.833Z,2.75
2018-02-24T21:46:52.476Z,2.25
2018-02-24T21:49:21.132Z,3.75
2018-02-24T21:51:49.777Z,1.92
2018-02-24T21:54:18.442Z,2.53
2018-02-24T21:56:46.898Z,3.55
2018-02-24T21:59:15.561Z,2.33
2018-02-24T22:01:44.198Z,2.90
2018-02-24T22:04:13.416Z,2.45
2018-02-24T22:06:42.060Z,3.40
2018-02-24T22:09:10.707Z,3.20
2018-02-24T22:11:39.373Z,1.08
2018-02-24T22:14:08.043Z,2.25
2018-02-24T22:16:37.460Z,2.53
2018-02-24T22:19:06.120Z,3.08
2018-02-24T22:21:35.529Z,3.10
2018-02-24T22:24:04.162Z,3.55
2018-02-24T22:26:32.814Z,3.30
2018-02-24T22:29:01.580Z,2.28
2018-02-24T22:31:31.003Z,2.60
2018-02-24T22:33:59.704Z,3.10
2018-02-24T22:36:28.384Z,2.47
2018-02-24T22:38:57.066Z,2.30
2018-02-24T22:41:25.823Z,1.90
2018-02-24T22:43:55.236Z,1.85
2018-02-24T22:46:24.832Z,2.80
2018-02-24T22:48:59.060Z,2.03
2018-02-24T22:51:28.494Z,2.17
2018-02-24T22:53:57.295Z,1.80
2018-02-24T22:56:25.940Z,2.62
2018-02-24T22:58:55.359Z,2.28
2018-02-24T23:01:24.016Z,1.00
2018-02-24T23:03:53.432Z,2.20
2018-02-24T23:06:22.103Z,2.35
2018-02-24T23:08:51.530Z,2.25
2018-02-24T23:11:20.274Z,2.45
2018-02-24T23:13:48.921Z,1.77
2018-02-24T23:16:17.662Z,3.10
2018-02-24T23:18:47.200Z,2.30
2018-02-24T23:21:15.847Z,1.75
2018-02-24T23:23:45.276Z,2.30
2018-02-24T23:26:13.916Z,1.73
2018-02-24T23:28:42.561Z,1.55
2018-02-24T23:31:11.299Z,2.60
2018-02-24T23:33:39.953Z,2.30
2018-02-24T23:36:08.089Z,1.92
2018-02-24T23:38:36.752Z,2.53
2018-02-24T23:41:06.895Z,1.92
2018-02-24T23:43:35.596Z,1.70
2018-02-24T23:46:04.269Z,1.52
2018-02-24T23:48:32.903Z,2.78
2018-02-24T23:51:01.380Z,2.30
2018-02-24T23:53:29.829Z,2.47
2018-02-24T23:55:58.286Z,1.90
2018-02-24T23:58:26.941Z,2.28
